createdAt,value
2018-04-17T00:01:51.855Z,92.90
2018-04-17T00:04:21.674Z,93.80
2018-04-17T00:06:49.719Z,93.70
2018-04-17T00:09:17.755Z,94.40
2018-04-17T00:11:46.599Z,94.10
2018-04-17T00:14:14.635Z,94.10
2018-04-17T00:16:42.667Z,94.00
2018-04-17T00:19:10.738Z,94.60
2018-04-17T00:21:38.776Z,94.30
2018-04-17T00:24:06.844Z,93.80
2018-04-17T00:26:34.904Z,93.30
2018-04-17T00:29:02.938Z,93.20
2018-04-17T00:31:31.042Z,92.70
2018-04-17T00:33:59.071Z,93.20
2018-04-17T00:36:27.128Z,94.30
2018-04-17T00:38:55.176Z,94.30
2018-04-17T00:41:23.983Z,94.20
2018-04-17T00:43:54.734Z,94.70
2018-04-17T00:46:23.536Z,94.30
2018-04-17T00:48:52.376Z,94.10
2018-04-17T00:51:20.427Z,94.00
2018-04-17T00:53:54.185Z,93.10
2018-04-17T00:56:22.235Z,93.10
2018-04-17T00:58:50.275Z,92.70
2018-04-17T01:01:18.327Z,92.40
2018-04-17T01:03:46.364Z,92.50
2018-04-17T01:06:15.194Z,92.80
2018-04-17T01:08:43.255Z,92.60
2018-04-17T01:11:12.059Z,93.00
2018-04-17T01:13:40.894Z,93.50
2018-04-17T01:16:08.933Z,93.50
2018-04-17T01:18:37.759Z,94.20
2018-04-17T01:21:05.824Z,94.10
2018-04-17T01:23:34.623Z,94.20
2018-04-17T01:26:02.675Z,94.20
2018-04-17T01:28:30.727Z,94.20
2018-04-17T01:30:58.785Z,94.20
2018-04-17T01:33:27.595Z,94.70
2018-04-17T01:35:55.670Z,94.70
2018-04-17T01:38:24.480Z,94.70
2018-04-17T01:40:52.567Z,94.70
2018-04-17T01:43:21.381Z,94.40
2018-04-17T01:45:50.292Z,94.80
2018-04-17T01:48:18.335Z,94.80
2018-04-17T01:50:46.384Z,95.50
2018-04-17T01:53:14.419Z,95.80
2018-04-17T01:55:43.246Z,94.60
2018-04-17T01:58:11.302Z,94.60
2018-04-17T02:00:40.113Z,94.10
2018-04-17T02:03:08.163Z,94.10
2018-04-17T02:05:36.195Z,94.10
2018-04-17T02:08:04.248Z,94.10
2018-04-17T02:10:33.068Z,94.10
2018-04-17T02:13:01.098Z,94.10
2018-04-17T02:15:29.157Z,94.10
2018-04-17T02:17:57.179Z,94.10
2018-04-17T02:20:25.232Z,94.10
2018-04-17T02:22:53.283Z,94.10
2018-04-17T02:25:21.320Z,94.50
2018-04-17T02:27:49.368Z,94.50
2018-04-17T02:30:17.400Z,94.90
2018-04-17T02:32:45.452Z,95.20
2018-04-17T02:35:13.508Z,95.00
2018-04-17T02:37:41.539Z,94.90
2018-04-17T02:40:09.597Z,95.00
2018-04-17T02:42:37.617Z,94.70
2018-04-17T02:45:05.676Z,94.70
2018-04-17T02:47:33.742Z,94.50
2018-04-17T02:50:01.764Z,94.40
2018-04-17T02:52:29.812Z,94.40
2018-04-17T02:54:57.836Z,94.40
2018-04-17T02:57:25.886Z,94.30
2018-04-17T02:59:53.958Z,94.30
2018-04-17T03:02:21.978Z,94.30
2018-04-17T03:04:50.056Z,94.30
2018-04-17T03:07:18.084Z,94.40
2018-04-17T03:09:46.911Z,94.90
2018-04-17T03:12:14.955Z,94.90
2018-04-17T03:14:43.767Z,94.30
2018-04-17T03:17:12.581Z,94.30
2018-04-17T03:19:40.604Z,94.20
2018-04-17T03:22:08.668Z,94.20
2018-04-17T03:24:36.717Z,94.10
2018-04-17T03:27:05.519Z,94.10
2018-04-17T03:29:34.335Z,94.20
2018-04-17T03:32:02.368Z,94.10
2018-04-17T03:34:30.417Z,94.10
2018-04-17T03:36:58.463Z,94.00
2018-04-17T03:39:27.251Z,94.10
2018-04-17T03:41:56.100Z,94.50
2018-04-17T03:44:24.127Z,94.40
2018-04-17T03:46:52.192Z,94.40
2018-04-17T03:49:20.237Z,94.30
2018-04-17T03:51:48.284Z,94.40
2018-04-17T03:54:16.338Z,94.40
2018-04-17T03:56:44.364Z,94.00
2018-04-17T03:59:12.420Z,94.00
2018-04-17T04:01:40.462Z,94.00
2018-04-17T04:04:08.508Z,94.00
2018-04-17T04:06:36.556Z,94.00
2018-04-17T04:09:04.571Z,94.00
2018-04-17T04:11:32.614Z,93.40
2018-04-17T04:14:00.663Z,93.20
2018-04-17T04:16:41.425Z,93.70
2018-04-17T04:19:21.376Z,93.70
2018-04-17T04:22:01.420Z,93.90
2018-04-17T04:24:41.537Z,93.90
2018-04-17T04:27:10.368Z,93.90
2018-04-17T04:29:38.412Z,93.90
2018-04-17T04:32:07.209Z,94.00
2018-04-17T04:34:35.259Z,93.70
2018-04-17T04:37:03.299Z,93.70
2018-04-17T04:39:31.359Z,93.90
2018-04-17T04:41:59.408Z,93.90
2018-04-17T04:44:27.472Z,93.40
2018-04-17T04:46:55.511Z,93.20
2018-04-17T04:49:23.551Z,93.80
2018-04-17T04:51:51.638Z,93.90
2018-04-17T04:54:19.676Z,93.80
2018-04-17T04:56:48.478Z,94.20
2018-04-17T04:59:17.299Z,93.90
2018-04-17T05:01:45.344Z,93.90
2018-04-17T05:04:13.412Z,93.90
2018-04-17T05:06:41.451Z,93.90
2018-04-17T05:09:09.509Z,93.90
2018-04-17T05:11:38.315Z,93.90
2018-04-17T05:14:07.130Z,94.30
2018-04-17T05:16:35.183Z,94.30
2018-04-17T05:19:03.216Z,94.30
2018-04-17T05:21:31.263Z,94.30
2018-04-17T05:23:59.326Z,94.40
2018-04-17T05:26:27.347Z,94.00
2018-04-17T05:28:56.173Z,94.10
2018-04-17T05:31:24.231Z,94.10
2018-04-17T05:33:53.036Z,94.20
2018-04-17T05:36:21.910Z,94.20
2018-04-17T05:38:49.949Z,94.10
2018-04-17T05:41:18.058Z,94.20
2018-04-17T05:43:46.130Z,94.30
2018-04-17T05:46:14.179Z,94.40
2018-04-17T05:48:42.232Z,94.30
2018-04-17T05:51:11.813Z,93.90
2018-04-17T05:53:39.864Z,93.90
2018-04-17T05:56:08.665Z,94.30
2018-04-17T05:58:37.480Z,94.30
2018-04-17T06:01:05.507Z,94.30
2018-04-17T06:03:33.555Z,94.40
2018-04-17T06:06:01.607Z,94.40
2018-04-17T06:08:30.403Z,94.50
2018-04-17T06:10:59.224Z,94.10
2018-04-17T06:13:28.024Z,94.10
2018-04-17T06:15:56.844Z,93.60
2018-04-17T06:18:24.903Z,93.60
2018-04-17T06:20:53.698Z,92.20
2018-04-17T06:23:22.567Z,91.80
2018-04-17T06:25:50.568Z,91.80
2018-04-17T06:28:18.620Z,91.20
2018-04-17T06:30:46.684Z,90.50
2018-04-17T06:33:14.744Z,90.90
2018-04-17T06:35:43.571Z,91.70
2018-04-17T06:38:11.620Z,91.60
2018-04-17T06:40:40.443Z,91.40
2018-04-17T06:43:08.506Z,91.40
2018-04-17T06:45:37.325Z,90.90
2018-04-17T06:48:06.165Z,89.80
2018-04-17T06:50:34.203Z,89.70
2018-04-17T06:53:03.032Z,88.10
2018-04-17T06:55:31.096Z,88.00
2018-04-17T06:57:59.178Z,86.80
2018-04-17T07:00:27.967Z,88.90
2018-04-17T07:02:56.771Z,88.20
2018-04-17T07:05:25.588Z,88.30
2018-04-17T07:07:53.631Z,88.30
2018-04-17T07:10:21.698Z,86.80
2018-04-17T07:12:49.752Z,85.40
2018-04-17T07:15:17.782Z,84.50
2018-04-17T07:17:45.844Z,85.30
2018-04-17T07:20:13.891Z,85.90
2018-04-17T07:22:41.951Z,86.30
2018-04-17T07:25:09.983Z,84.30
2018-04-17T07:27:38.116Z,85.20
2018-04-17T07:30:06.176Z,84.60
2018-04-17T07:32:34.245Z,84.60
2018-04-17T07:35:02.304Z,84.00
2018-04-17T07:37:30.415Z,82.40
2018-04-17T07:39:58.471Z,81.20
2018-04-17T07:42:26.543Z,81.40
2018-04-17T07:44:55.344Z,81.40
2018-04-17T07:47:31.083Z,79.60
2018-04-17T07:50:00.634Z,78.30
2018-04-17T07:52:29.456Z,79.00
2018-04-17T07:54:57.497Z,78.90
2018-04-17T07:57:26.328Z,79.20
2018-04-17T07:59:54.372Z,79.10
2018-04-17T08:02:22.431Z,76.70
2018-04-17T08:04:50.486Z,77.70
2018-04-17T08:07:18.527Z,79.20
2018-04-17T08:09:46.589Z,77.10
2018-04-17T08:12:14.620Z,73.90
2018-04-17T08:14:42.680Z,73.40
2018-04-17T08:17:10.722Z,74.10
2018-04-17T08:19:38.785Z,73.50
2018-04-17T08:22:06.843Z,72.70
2018-04-17T08:24:35.649Z,70.10
2018-04-17T08:27:04.470Z,69.90
2018-04-17T08:29:32.507Z,69.90
2018-04-17T08:32:02.081Z,71.90
2018-04-17T08:34:30.123Z,71.80
2018-04-17T08:36:58.239Z,70.20
2018-04-17T08:39:26.223Z,70.10
2018-04-17T08:41:54.291Z,70.30
2018-04-17T08:44:23.108Z,67.40
2018-04-17T08:46:51.151Z,67.30
2018-04-17T08:49:19.213Z,67.20
2018-04-17T08:51:47.243Z,67.10
2018-04-17T08:54:16.071Z,65.50
2018-04-17T08:56:44.108Z,65.50
2018-04-17T08:59:12.164Z,64.00
2018-04-17T09:01:40.232Z,62.50
2018-04-17T09:04:08.295Z,62.70
2018-04-17T09:06:36.372Z,60.70
2018-04-17T09:09:07.159Z,60.80
2018-04-17T09:11:35.272Z,60.80
2018-04-17T09:14:03.323Z,60.40
2018-04-17T09:16:31.359Z,58.90
2018-04-17T09:19:00.178Z,58.40
2018-04-17T09:21:28.219Z,58.30
2018-04-17T09:23:56.304Z,58.50
2018-04-17T09:26:24.340Z,57.00
2018-04-17T09:28:52.395Z,57.60
2018-04-17T09:31:21.216Z,56.80
2018-04-17T09:33:49.259Z,56.70
2018-04-17T09:36:17.314Z,55.90
2018-04-17T09:38:45.367Z,57.50
2018-04-17T09:41:13.435Z,57.90
2018-04-17T09:43:42.256Z,52.60
2018-04-17T09:46:10.327Z,52.50
2018-04-17T09:48:38.387Z,49.70
2018-04-17T09:51:06.439Z,50.80
2018-04-17T09:53:34.501Z,48.90
2018-04-17T09:58:23.813Z,53.80
2018-04-17T10:00:57.747Z,49.30
2018-04-17T10:03:25.854Z,46.50
2018-04-17T10:05:53.931Z,46.50
2018-04-17T10:08:21.975Z,46.80
2018-04-17T10:10:50.032Z,47.20
2018-04-17T10:13:18.856Z,43.60
2018-04-17T10:15:46.939Z,43.60
2018-04-17T10:18:14.995Z,42.20
2018-04-17T10:20:43.820Z,40.30
2018-04-17T10:23:12.625Z,40.80
2018-04-17T10:25:40.688Z,40.80
2018-04-17T10:28:09.496Z,40.70
2018-04-17T10:30:38.329Z,39.40
2018-04-17T10:33:06.384Z,39.20
2018-04-17T10:35:35.217Z,39.60
2018-04-17T10:38:03.267Z,39.50
2018-04-17T10:40:32.092Z,38.70
2018-04-17T10:43:00.192Z,38.50
2018-04-17T10:45:28.235Z,37.40
2018-04-17T10:47:57.060Z,36.10
2018-04-17T10:50:25.109Z,35.90
2018-04-17T10:52:53.153Z,34.80
2018-04-17T10:55:21.215Z,34.50
2018-04-17T10:57:49.260Z,32.70
2018-04-17T11:00:17.328Z,30.90
2018-04-17T11:02:46.887Z,32.90
2018-04-17T11:05:15.709Z,29.60
2018-04-17T11:07:43.771Z,29.60
2018-04-17T11:10:12.596Z,28.40
2018-04-17T11:12:40.660Z,28.40
2018-04-17T11:15:09.466Z,29.50
2018-04-17T11:17:37.529Z,29.40
2018-04-17T11:20:06.351Z,24.30
2018-04-17T11:22:34.412Z,24.30
2018-04-17T11:25:03.246Z,29.70
2018-04-17T11:27:31.318Z,29.80
2018-04-17T11:29:59.387Z,27.80
2018-04-17T11:32:28.198Z,28.30
2018-04-17T11:34:57.026Z,27.70
2018-04-17T11:37:25.063Z,27.60
2018-04-17T11:39:53.899Z,29.40
2018-04-17T11:42:21.934Z,29.10
2018-04-17T11:44:50.003Z,27.40
2018-04-17T11:47:18.075Z,28.30
2018-04-17T11:49:46.115Z,28.60
2018-04-17T11:52:14.984Z,28.00
2018-04-17T11:54:43.040Z,28.50
2018-04-17T11:57:11.127Z,26.40
2018-04-17T11:59:39.180Z,26.00
2018-04-17T12:02:08.008Z,25.70
2018-04-17T12:04:36.055Z,25.70
2018-04-17T12:07:04.883Z,25.80
2018-04-17T12:09:32.936Z,25.90
2018-04-17T12:12:00.996Z,25.80
2018-04-17T12:14:29.026Z,25.40
2018-04-17T12:16:57.082Z,25.10
2018-04-17T12:19:25.916Z,25.10
2018-04-17T12:21:53.959Z,25.00
2018-04-17T12:24:22.015Z,25.60
2018-04-17T12:26:50.051Z,26.00
2018-04-17T12:29:18.872Z,27.10
2018-04-17T12:31:46.910Z,27.00
2018-04-17T12:34:14.975Z,27.10
2018-04-17T12:36:43.023Z,25.20
2018-04-17T12:39:11.063Z,25.40
2018-04-17T12:41:39.116Z,23.90
2018-04-17T12:44:07.159Z,25.10
2018-04-17T12:46:35.980Z,26.30
2018-04-17T12:49:04.035Z,26.30
2018-04-17T12:51:32.088Z,25.50
2018-04-17T12:54:00.130Z,25.10
2018-04-17T12:56:28.195Z,23.40
2018-04-17T12:58:57.020Z,27.10
2018-04-17T13:01:25.059Z,27.10
2018-04-17T13:03:53.112Z,21.40
2018-04-17T13:06:21.149Z,23.70
2018-04-17T13:08:49.971Z,22.10
2018-04-17T13:11:18.017Z,22.10
2018-04-17T13:13:46.083Z,22.10
2018-04-17T13:16:14.131Z,21.00
2018-04-17T13:18:42.175Z,19.40
2018-04-17T13:21:11.015Z,19.80
2018-04-17T13:23:39.053Z,19.80
2018-04-17T13:26:07.879Z,20.50
2018-04-17T13:28:35.940Z,20.50
2018-04-17T13:31:03.995Z,23.30
2018-04-17T13:33:32.056Z,20.80
2018-04-17T13:36:00.094Z,20.10
2018-04-17T13:38:28.142Z,20.50
2018-04-17T13:40:56.176Z,22.70
2018-04-17T13:43:25.000Z,20.50
2018-04-17T13:45:53.068Z,20.50
2018-04-17T13:48:21.902Z,20.70
2018-04-17T13:50:49.927Z,20.90
2018-04-17T13:53:17.992Z,20.70
2018-04-17T13:55:46.043Z,19.70
2018-04-17T13:58:14.108Z,22.80
2018-04-17T14:00:42.171Z,20.30
2018-04-17T14:03:10.984Z,20.00
2018-04-17T14:05:39.809Z,20.60
2018-04-17T14:08:07.833Z,20.40
2018-04-17T14:10:35.891Z,20.10
2018-04-17T14:13:03.939Z,20.80
2018-04-17T14:15:32.743Z,22.30
2018-04-17T14:18:00.799Z,22.10
2018-04-17T14:20:28.838Z,19.50
2018-04-17T14:22:56.895Z,20.90
2018-04-17T14:25:24.939Z,19.10
2018-04-17T14:27:52.991Z,18.60
2018-04-17T14:30:21.047Z,19.70
2018-04-17T14:32:49.096Z,19.70
2018-04-17T14:35:17.151Z,20.40
2018-04-17T14:37:45.197Z,19.90
2018-04-17T14:40:14.020Z,20.10
2018-04-17T14:42:42.055Z,20.20
2018-04-17T14:45:10.127Z,19.40
2018-04-17T14:47:38.164Z,19.60
2018-04-17T14:50:06.237Z,20.50
2018-04-17T14:52:35.072Z,18.90
2018-04-17T14:55:03.140Z,18.90
2018-04-17T14:57:31.195Z,20.40
2018-04-17T15:00:00.003Z,20.50
2018-04-17T15:02:28.834Z,20.20
2018-04-17T15:04:56.883Z,20.20
2018-04-17T15:07:25.703Z,20.50
2018-04-17T15:09:53.735Z,20.40
2018-04-17T15:12:21.809Z,19.20
2018-04-17T15:14:49.864Z,19.70
2018-04-17T15:17:17.909Z,20.50
2018-04-17T15:19:46.744Z,19.60
2018-04-17T15:22:14.783Z,19.40
2018-04-17T15:24:43.332Z,20.60
2018-04-17T15:27:11.448Z,18.80
2018-04-17T15:29:39.501Z,19.70
2018-04-17T15:32:07.558Z,18.80
2018-04-17T15:34:36.366Z,18.40
2018-04-17T15:37:04.427Z,18.30
2018-04-17T15:39:32.473Z,19.10
2018-04-17T15:42:00.526Z,19.20
2018-04-17T15:44:28.564Z,18.90
2018-04-17T15:46:56.646Z,19.30
2018-04-17T15:49:24.703Z,20.30
2018-04-17T15:51:52.760Z,19.50
2018-04-17T15:54:20.804Z,20.30
2018-04-17T15:56:48.889Z,20.10
2018-04-17T15:59:16.952Z,20.80
2018-04-17T16:01:45.021Z,22.00
2018-04-17T16:04:13.080Z,22.20
2018-04-17T16:06:41.270Z,22.60
2018-04-17T16:09:09.336Z,23.90
2018-04-17T16:11:37.395Z,21.30
2018-04-17T16:14:05.475Z,21.70
2018-04-17T16:16:33.522Z,22.60
2018-04-17T16:19:01.571Z,20.60
2018-04-17T16:21:30.400Z,20.80
2018-04-17T16:23:58.467Z,20.80
2018-04-17T16:26:26.536Z,20.70
2018-04-17T16:28:55.347Z,20.20
2018-04-17T16:31:23.427Z,20.20
2018-04-17T16:33:52.232Z,22.10
2018-04-17T16:36:21.066Z,21.30
2018-04-17T16:38:49.116Z,21.30
2018-04-17T16:41:17.943Z,23.00
2018-04-17T16:43:45.997Z,22.90
2018-04-17T16:46:14.848Z,23.00
2018-04-17T16:48:43.739Z,23.10
2018-04-17T16:51:11.837Z,23.10
2018-04-17T16:53:39.916Z,23.70
2018-04-17T16:56:09.733Z,23.50
2018-04-17T16:58:37.818Z,23.70
2018-04-17T17:01:05.901Z,23.90
2018-04-17T17:03:33.937Z,23.10
2018-04-17T17:06:02.761Z,23.00
2018-04-17T17:08:31.712Z,22.90
2018-04-17T17:10:59.784Z,23.30
2018-04-17T17:13:27.823Z,23.80
2018-04-17T17:15:56.644Z,23.40
2018-04-17T17:18:24.679Z,23.40
2018-04-17T17:20:52.787Z,24.00
2018-04-17T17:23:21.619Z,23.10
2018-04-17T17:25:49.655Z,23.00
2018-04-17T17:28:17.708Z,23.80
2018-04-17T17:30:45.746Z,23.60
2018-04-17T17:33:13.819Z,24.30
2018-04-17T17:35:42.660Z,25.70
2018-04-17T17:38:10.748Z,25.60
2018-04-17T17:40:38.906Z,26.30
2018-04-17T17:43:07.721Z,27.60
2018-04-17T17:45:35.785Z,27.50
2018-04-17T17:48:04.604Z,28.10
2018-04-17T17:50:32.661Z,28.00
2018-04-17T17:53:01.488Z,29.20
2018-04-17T17:55:29.571Z,29.20
2018-04-17T17:57:57.623Z,29.20
2018-04-17T18:00:25.692Z,29.40
2018-04-17T18:02:53.752Z,29.50
2018-04-17T18:05:23.673Z,30.00
2018-04-17T18:07:51.839Z,31.30
2018-04-17T18:10:19.887Z,32.00
2018-04-17T18:12:48.742Z,32.40
2018-04-17T18:15:16.780Z,32.50
2018-04-17T18:17:45.619Z,33.60
2018-04-17T18:20:13.679Z,33.50
2018-04-17T18:22:42.537Z,34.30
2018-04-17T18:25:10.572Z,34.10
2018-04-17T18:27:38.655Z,34.80
2018-04-17T18:30:06.702Z,35.20
2018-04-17T18:32:34.780Z,35.10
2018-04-17T18:35:02.823Z,35.20
2018-04-17T18:37:30.892Z,35.90
2018-04-17T18:39:59.697Z,36.40
2018-04-17T18:42:27.756Z,36.40
2018-04-17T18:44:56.577Z,37.50
2018-04-17T18:47:25.412Z,38.00
2018-04-17T18:49:54.232Z,38.30
2018-04-17T18:52:22.304Z,38.30
2018-04-17T18:54:50.360Z,38.80
2018-04-17T18:57:18.428Z,39.20
2018-04-17T18:59:47.469Z,39.70
2018-04-17T19:02:15.515Z,40.50
2018-04-17T19:04:44.342Z,41.20
2018-04-17T19:07:12.431Z,41.20
2018-04-17T19:09:40.502Z,41.90
2018-04-17T19:12:08.572Z,42.90
2018-04-17T19:14:37.402Z,42.50
2018-04-17T19:17:05.463Z,42.50
2018-04-17T19:19:34.258Z,42.50
2018-04-17T19:22:03.096Z,43.60
2018-04-17T19:24:31.155Z,43.50
2018-04-17T19:26:59.200Z,45.50
2018-04-17T19:29:27.259Z,45.90
2018-04-17T19:31:55.352Z,45.90
2018-04-17T19:34:23.415Z,45.90
2018-04-17T19:36:51.485Z,46.60
2018-04-17T19:39:19.528Z,46.90
2018-04-17T19:41:47.581Z,46.50
2018-04-17T19:44:15.644Z,46.50
2018-04-17T19:46:44.467Z,46.60
2018-04-17T19:49:13.144Z,46.50
2018-04-17T19:51:43.181Z,46.60
2018-04-17T19:54:11.224Z,46.90
2018-04-17T19:56:39.288Z,47.20
2018-04-17T19:59:07.328Z,48.70
2018-04-17T20:01:35.400Z,48.50
2018-04-17T20:04:03.439Z,48.50
2018-04-17T20:06:31.506Z,48.50
2018-04-17T20:08:59.589Z,48.90
2018-04-17T20:11:27.619Z,49.90
2018-04-17T20:13:56.443Z,50.30
2018-04-17T20:16:24.479Z,50.20
2018-04-17T20:18:52.539Z,49.80
2018-04-17T20:21:20.579Z,50.50
2018-04-17T20:23:49.403Z,51.40
2018-04-17T20:26:17.475Z,51.30
2018-04-17T20:28:45.543Z,51.70
2018-04-17T20:31:14.356Z,52.30
2018-04-17T20:33:43.191Z,52.50
2018-04-17T20:36:11.255Z,52.40
2018-04-17T20:38:39.312Z,52.60
2018-04-17T20:41:08.136Z,52.90
2018-04-17T20:43:36.196Z,52.70
2018-04-17T20:46:05.000Z,53.70
2018-04-17T20:48:33.823Z,53.90
2018-04-17T20:51:01.869Z,53.80
2018-04-17T20:53:29.935Z,54.20
2018-04-17T20:55:57.974Z,54.00
2018-04-17T20:58:26.030Z,54.30
2018-04-17T21:00:54.139Z,54.30
2018-04-17T21:03:22.961Z,55.00
2018-04-17T21:05:51.017Z,54.90
2018-04-17T21:08:19.835Z,55.40
2018-04-17T21:10:47.916Z,55.40
2018-04-17T21:13:15.951Z,57.30
2018-04-17T21:15:44.008Z,58.70
2018-04-17T21:18:12.072Z,59.20
2018-04-17T21:20:40.139Z,60.50
2018-04-17T21:23:08.957Z,61.40
2018-04-17T21:25:37.014Z,61.30
2018-04-17T21:28:05.048Z,61.70
2018-04-17T21:30:33.903Z,63.20
2018-04-17T21:33:01.981Z,63.00
2018-04-17T21:35:30.042Z,61.70
2018-04-17T21:37:58.077Z,61.10
2018-04-17T21:40:26.147Z,60.50
2018-04-17T21:42:54.960Z,61.20
2018-04-17T21:45:23.009Z,61.10
2018-04-17T21:47:52.563Z,60.40
2018-04-17T21:50:20.596Z,60.30
2018-04-17T21:52:48.655Z,60.70
2018-04-17T21:55:16.686Z,62.00
2018-04-17T21:57:44.740Z,63.60
2018-04-17T22:00:12.780Z,62.50
2018-04-17T22:02:40.835Z,63.00
2018-04-17T22:05:08.868Z,62.60
2018-04-17T22:07:36.927Z,62.70
2018-04-17T22:10:05.751Z,65.30
2018-04-17T22:12:33.783Z,65.20
2018-04-17T22:15:01.844Z,65.10
2018-04-17T22:17:29.883Z,67.30
2018-04-17T22:19:58.691Z,65.90
2018-04-17T22:22:26.728Z,65.80
2018-04-17T22:24:56.295Z,65.20
2018-04-17T22:27:24.351Z,65.10
2018-04-17T22:29:53.155Z,65.40
2018-04-17T22:32:21.975Z,67.60
2018-04-17T22:34:50.019Z,67.00
2018-04-17T22:37:18.081Z,66.70
2018-04-17T22:39:46.126Z,66.20
2018-04-17T22:42:14.944Z,64.90
2018-04-17T22:44:42.996Z,65.70
2018-04-17T22:47:11.808Z,68.90
2018-04-17T22:49:39.872Z,68.90
2018-04-17T22:52:09.412Z,70.70
2018-04-17T22:54:38.229Z,73.20
2018-04-17T22:57:06.271Z,73.10
2018-04-17T22:59:34.331Z,72.10
2018-04-17T23:02:02.394Z,71.80
2018-04-17T23:04:30.434Z,71.20
2018-04-17T23:06:58.478Z,70.00
2018-04-17T23:09:26.523Z,68.70
2018-04-17T23:11:54.589Z,68.00
2018-04-17T23:14:23.388Z,69.70
2018-04-17T23:16:51.435Z,68.90
2018-04-17T23:19:19.492Z,70.30
2018-04-17T23:21:47.535Z,72.00
2018-04-17T23:24:15.608Z,72.60
2018-04-17T23:26:43.649Z,72.50
2018-04-17T23:29:11.712Z,71.30
2018-04-17T23:31:39.771Z,70.60
2018-04-17T23:34:07.834Z,70.20
2018-04-17T23:36:35.859Z,70.00
2018-04-17T23:39:04.676Z,68.90
2018-04-17T23:41:32.734Z,68.80
2018-04-17T23:44:01.537Z,69.20
2018-04-17T23:46:30.359Z,69.00
2018-04-17T23:48:58.395Z,68.90
2018-04-17T23:51:28.009Z,69.50
2018-04-17T23:53:56.008Z,69.50
2018-04-17T23:56:24.078Z,69.90
2018-04-17T23:58:52.142Z,72.40
